Time;durP1;ratioP1;P1;durP2;ratioP2;P2;SDS_P1;SDS_P2;PMS_P1;PMS_P2;Temp;Humidity;BMP_temperature;BMP_pressure;BME280_temperature;BME280_humidity;BME280_pressure;Samples;Min_cycle;Max_cycle;Signal;HPM_P1;HPM_P2
2022/10/27 00:01:35;;;;;;;6.70;1.77;;;16.80;73.60;;;;;;2541862;54;20965;-77
2022/10/27 00:04:02;;;;;;;5.65;1.45;;;16.80;73.60;;;;;;2285035;55;21499;-75
2022/10/27 00:06:29;;;;;;;3.25;1.35;;;16.80;73.70;;;;;;2292107;55;21018;-76
2022/10/27 00:08:55;;;;;;;4.10;1.45;;;16.70;73.60;;;;;;2517100;54;20927;-78
2022/10/27 00:11:24;;;;;;;3.42;1.35;;;16.70;73.50;;;;;;2515934;54;21652;-79
2022/10/27 00:13:50;;;;;;;4.45;1.42;;;16.70;73.50;;;;;;2310190;54;21021;-77
2022/10/27 00:16:18;;;;;;;8.70;2.00;;;16.70;73.50;;;;;;2288913;55;20999;-78
2022/10/27 00:18:44;;;;;;;4.37;1.62;;;16.60;73.40;;;;;;2315358;54;21908;-75
2022/10/27 00:21:13;;;;;;;4.37;1.60;;;16.60;73.50;;;;;;2294032;55;21041;-76
2022/10/27 00:23:39;;;;;;;5.20;1.48;;;16.60;73.50;;;;;;2288757;55;20939;-77
2022/10/27 00:26:09;;;;;;;4.87;1.30;;;16.50;73.50;;;;;;2521430;54;21264;-77
2022/10/27 00:28:45;;;;;;;5.47;1.40;;;16.50;73.50;;;;;;2283368;54;20942;-76
2022/10/27 00:31:22;;;;;;;7.72;1.65;;;16.50;73.10;;;;;;2301184;55;21001;-76
2022/10/27 00:33:48;;;;;;;4.18;1.15;;;16.50;73.20;;;;;;2296996;55;20973;-77
2022/10/27 00:36:22;;;;;;;14.27;1.67;;;16.40;73.40;;;;;;2289816;55;21058;-76
2022/10/27 00:38:51;;;;;;;5.07;1.60;;;16.40;73.30;;;;;;2521063;54;21860;-76
2022/10/27 00:41:31;;;;;;;3.53;1.10;;;16.40;73.40;;;;;;2306932;55;21033;-78
2022/10/27 00:43:59;;;;;;;4.50;1.58;;;16.40;73.10;;;;;;2286680;54;21006;-77
2022/10/27 00:46:43;;;;;;;4.18;1.60;;;16.30;73.30;;;;;;2527650;54;21002;-76
2022/10/27 00:49:12;;;;;;;5.18;1.33;;;16.30;72.80;;;;;;2290975;55;21049;-76
2022/10/27 00:51:44;;;;;;;4.87;1.23;;;16.30;73.50;;;;;;2296868;55;21038;-79
2022/10/27 00:54:11;;;;;;;2.83;1.30;;;16.20;73.40;;;;;;2522545;54;20939;-78
2022/10/27 00:56:38;;;;;;;10.23;1.65;;;16.20;73.30;;;;;;2279784;55;21017;-77
2022/10/27 00:59:04;;;;;;;4.68;1.62;;;16.20;73.50;;;;;;2283281;55;21621;-77
2022/10/27 01:01:33;;;;;;;3.50;1.33;;;16.20;73.50;;;;;;2426464;54;20952;-78
2022/10/27 01:03:59;;;;;;;7.57;1.52;;;16.10;73.40;;;;;;2270329;55;21471;-79
2022/10/27 01:06:25;;;;;;;3.35;1.50;;;16.10;73.50;;;;;;2277903;55;20992;-78
2022/10/27 01:08:55;;;;;;;6.87;2.65;;;16.10;73.60;;;;;;2280519;55;21047;-76
2022/10/27 01:11:22;;;;;;;4.40;1.83;;;16.10;73.50;;;;;;2267266;55;21059;-78
2022/10/27 01:13:51;;;;;;;2.97;1.40;;;16.00;73.50;;;;;;2272263;55;21005;-76
2022/10/27 01:19:19;;;;;;;4.85;1.50;;;16.00;73.50;;;;;;2412160;54;20905;-75
2022/10/27 01:22:07;;;;;;;2.87;1.15;;;16.00;72.40;;;;;;2510666;53;20942;-77
2022/10/27 01:25:13;;;;;;;2.62;1.20;;;16.00;73.20;;;;;;2275000;55;21834;-79
2022/10/27 01:28:14;;;;;;;2.80;1.00;;;16.00;72.80;;;;;;2265707;55;21021;-75
2022/10/27 01:31:00;;;;;;;11.07;2.05;;;16.00;72.80;;;;;;2282208;56;20965;-77
2022/10/27 01:33:32;;;;;;;5.50;1.58;;;15.90;72.80;;;;;;2280788;54;20972;-79
2022/10/27 01:36:54;;;;;;;4.62;1.75;;;15.90;73.40;;;;;;2281903;55;20955;-77
2022/10/27 01:40:27;;;;;;;6.10;1.23;;;15.90;73.10;;;;;;2254775;55;1792571;-77
2022/10/27 01:43:08;;;;;;;7.00;1.50;;;15.80;72.60;;;;;;2288897;55;20969;-76
2022/10/27 01:45:36;;;;;;;2.78;1.23;;;15.80;73.30;;;;;;2286337;54;20948;-75
2022/10/27 01:48:05;;;;;;;2.17;1.10;;;15.80;73.40;;;;;;2285959;55;21474;-76
2022/10/27 01:50:33;;;;;;;3.72;1.37;;;15.80;73.40;;;;;;2297865;55;20991;-76
2022/10/27 01:53:01;;;;;;;2.83;1.45;;;15.70;73.20;;;;;;2286675;55;21029;-78
2022/10/27 01:56:41;;;;;;;4.45;1.55;;;15.70;73.20;;;;;;2312371;55;21085;-77
2022/10/27 01:59:23;;;;;;;2.90;1.27;;;15.70;72.20;;;;;;2371189;54;20969;-77
2022/10/27 02:03:29;;;;;;;2.42;1.15;;;15.70;73.00;;;;;;2289925;55;21427;-75
2022/10/27 02:06:08;;;;;;;4.43;1.20;;;15.60;72.50;;;;;;2301623;55;21012;-78
2022/10/27 02:08:45;;;;;;;5.35;2.15;;;15.60;72.80;;;;;;2314658;54;20972;-75
2022/10/27 02:11:12;;;;;;;4.80;1.48;;;15.50;72.80;;;;;;2290324;55;21072;-78
2022/10/27 02:13:40;;;;;;;2.95;1.42;;;15.50;73.30;;;;;;2302818;55;20974;-78
2022/10/27 02:16:21;;;;;;;4.25;1.60;;;15.50;73.40;;;;;;2311771;55;21101;-77
2022/10/27 02:18:56;;;;;;;3.72;1.20;;;15.50;73.30;;;;;;2500404;54;21841;-75
2022/10/27 02:21:22;;;;;;;6.68;1.40;;;15.50;73.30;;;;;;2335450;54;21040;-75
2022/10/27 02:23:48;;;;;;;3.03;1.27;;;15.40;73.30;;;;;;2302054;54;20934;-79
2022/10/27 02:33:04;;;;;;;6.65;1.90;;;15.40;73.20;;;;;;2297387;55;20983;-79
2022/10/27 02:35:30;;;;;;;7.65;1.42;;;15.40;72.20;;;;;;2520708;54;20939;-76
2022/10/27 02:37:58;;;;;;;3.10;1.40;;;15.30;73.20;;;;;;2295826;55;21015;-77
2022/10/27 02:40:24;;;;;;;3.35;1.33;;;15.30;73.30;;;;;;2388683;54;20939;-76
2022/10/27 02:42:54;;;;;;;3.03;1.40;;;15.30;73.40;;;;;;2287242;55;21736;-78
2022/10/27 02:45:20;;;;;;;4.07;1.80;;;15.20;73.20;;;;;;2296655;54;21816;-76
2022/10/27 02:47:47;;;;;;;8.50;2.17;;;15.20;73.20;;;;;;2297515;55;21356;-76
2022/10/27 02:50:14;;;;;;;4.10;1.75;;;15.20;73.30;;;;;;2295201;54;20934;-78
2022/10/27 02:52:42;;;;;;;5.25;2.17;;;15.20;73.50;;;;;;2414080;54;20967;-74
2022/10/27 02:55:09;;;;;;;6.62;2.35;;;15.20;73.60;;;;;;2515055;54;20979;-76
2022/10/27 02:57:38;;;;;;;4.05;1.95;;;15.20;73.70;;;;;;2300699;55;20906;-76
2022/10/27 03:00:05;;;;;;;4.72;2.03;;;15.10;73.60;;;;;;2520685;54;20989;-76
2022/10/27 03:02:32;;;;;;;6.80;2.10;;;15.10;73.40;;;;;;2297772;55;20946;-77
2022/10/27 03:04:58;;;;;;;2.92;1.70;;;15.10;73.50;;;;;;2287351;55;20950;-75
2022/10/27 03:07:24;;;;;;;4.78;2.22;;;15.10;73.50;;;;;;2295587;55;21851;-77
2022/10/27 03:09:51;;;;;;;3.97;1.58;;;15.10;73.50;;;;;;2290693;55;20907;-76
2022/10/27 03:12:17;;;;;;;3.80;1.95;;;15.10;73.50;;;;;;2410472;54;20924;-75
2022/10/27 03:14:46;;;;;;;5.47;2.12;;;15.10;73.30;;;;;;2299440;55;21063;-78
2022/10/27 03:17:12;;;;;;;6.60;1.80;;;15.00;73.10;;;;;;2286383;55;20978;-77
2022/10/27 03:19:41;;;;;;;9.63;2.05;;;15.00;73.30;;;;;;2306544;54;21037;-77
2022/10/27 03:22:08;;;;;;;7.35;1.55;;;15.00;73.30;;;;;;2522428;54;21888;-78
2022/10/27 03:24:34;;;;;;;4.70;1.77;;;15.00;73.50;;;;;;2301036;54;21034;-77
2022/10/27 03:27:00;;;;;;;3.47;1.67;;;15.00;73.50;;;;;;2421618;54;21700;-75
2022/10/27 03:29:27;;;;;;;4.75;1.50;;;15.00;73.50;;;;;;2382478;54;21097;-77
2022/10/27 03:31:57;;;;;;;3.10;1.42;;;14.90;73.50;;;;;;2516724;54;20986;-75
2022/10/27 03:34:23;;;;;;;3.65;1.40;;;15.00;73.50;;;;;;2290286;55;20983;-75
2022/10/27 03:36:49;;;;;;;4.10;1.87;;;14.90;73.40;;;;;;2313313;55;20965;-78
2022/10/27 03:39:16;;;;;;;3.28;1.80;;;14.90;73.40;;;;;;2292807;55;20968;-78
2022/10/27 03:41:42;;;;;;;5.45;1.80;;;14.90;73.40;;;;;;2307454;55;20977;-76
2022/10/27 03:44:09;;;;;;;3.72;1.60;;;14.90;73.40;;;;;;2394513;54;21025;-77
2022/10/27 03:46:36;;;;;;;2.90;1.35;;;14.90;73.40;;;;;;2486964;54;21085;-76
2022/10/27 03:49:02;;;;;;;3.10;1.62;;;14.90;73.40;;;;;;2406697;54;20946;-77
2022/10/27 03:51:29;;;;;;;3.72;1.70;;;14.90;73.40;;;;;;2291236;55;21384;-78
2022/10/27 03:53:56;;;;;;;4.45;1.98;;;14.80;73.30;;;;;;2295332;55;21024;-78
2022/10/27 03:56:22;;;;;;;5.40;2.20;;;14.80;73.20;;;;;;2302357;54;20962;-75
2022/10/27 03:58:49;;;;;;;5.85;2.70;;;14.80;73.40;;;;;;2309745;55;21008;-77
2022/10/27 04:01:15;;;;;;;3.65;2.00;;;14.80;73.40;;;;;;2294089;55;20938;-76
2022/10/27 04:03:42;;;;;;;4.20;2.33;;;14.80;73.50;;;;;;2294168;55;21758;-78
2022/10/27 04:06:11;;;;;;;4.20;2.00;;;14.80;73.60;;;;;;2294674;54;21044;-76
2022/10/27 04:08:37;;;;;;;3.97;2.10;;;14.80;73.60;;;;;;2302847;55;21034;-76
2022/10/27 04:11:05;;;;;;;5.00;1.65;;;14.80;73.60;;;;;;2517414;54;20950;-76
2022/10/27 04:13:34;;;;;;;4.15;2.30;;;14.80;73.60;;;;;;2293836;55;21039;-76
2022/10/27 04:16:01;;;;;;;3.92;1.67;;;14.80;73.40;;;;;;2303491;55;20977;-76
2022/10/27 04:18:27;;;;;;;3.25;1.80;;;14.80;73.50;;;;;;2311793;54;21245;-75
2022/10/27 04:20:53;;;;;;;6.95;2.30;;;14.70;73.30;;;;;;2305640;55;20942;-76
2022/10/27 04:23:21;;;;;;;3.17;1.60;;;14.80;73.50;;;;;;2394970;54;20942;-78
2022/10/27 04:25:48;;;;;;;3.08;1.48;;;14.70;73.50;;;;;;2306580;55;20921;-78
2022/10/27 04:28:15;;;;;;;3.45;1.70;;;14.70;73.40;;;;;;2287271;55;21090;-77
2022/10/27 04:30:41;;;;;;;8.43;1.70;;;14.70;73.40;;;;;;2286015;55;21014;-76
2022/10/27 04:33:08;;;;;;;5.25;2.35;;;14.70;73.40;;;;;;2286076;55;20931;-77
2022/10/27 04:35:34;;;;;;;6.47;2.12;;;14.70;73.40;;;;;;2304663;55;20952;-78
2022/10/27 04:38:00;;;;;;;4.55;1.67;;;14.70;73.50;;;;;;2324764;53;20963;-76
2022/10/27 04:40:29;;;;;;;7.97;1.95;;;14.70;73.40;;;;;;2471470;54;21025;-75
2022/10/27 04:42:56;;;;;;;8.15;1.90;;;14.60;73.40;;;;;;2295090;55;21123;-76
2022/10/27 04:45:22;;;;;;;4.20;1.95;;;14.70;73.60;;;;;;2304368;55;21028;-76
2022/10/27 04:47:48;;;;;;;3.55;1.87;;;14.70;73.60;;;;;;2287725;55;21066;-75
2022/10/27 04:50:16;;;;;;;3.42;1.50;;;14.60;73.40;;;;;;2327064;55;20999;-75
2022/10/27 04:52:52;;;;;;;4.22;1.85;;;14.60;73.40;;;;;;2286828;55;20946;-75
2022/10/27 04:55:19;;;;;;;6.78;2.00;;;14.60;73.40;;;;;;2330723;54;20953;-77
2022/10/27 04:57:46;;;;;;;4.90;1.90;;;14.60;73.40;;;;;;2529085;54;20994;-79
2022/10/27 05:00:13;;;;;;;4.32;1.90;;;14.60;73.40;;;;;;2291632;55;22057;-77
2022/10/27 05:02:39;;;;;;;3.92;1.77;;;14.60;73.40;;;;;;2298430;54;21515;-79
2022/10/27 05:05:07;;;;;;;3.05;1.55;;;14.60;73.40;;;;;;2306070;55;20930;-75
2022/10/27 05:07:36;;;;;;;2.90;1.55;;;14.60;73.50;;;;;;2440639;54;20982;-78
2022/10/27 05:10:02;;;;;;;5.90;1.70;;;14.60;73.40;;;;;;2300391;55;21049;-76
2022/10/27 05:12:29;;;;;;;6.30;1.62;;;14.50;73.40;;;;;;2316112;54;21613;-76
2022/10/27 05:14:55;;;;;;;4.18;1.70;;;14.50;73.40;;;;;;2307950;54;21009;-77
2022/10/27 05:17:22;;;;;;;2.75;1.40;;;14.50;73.40;;;;;;2298553;55;20999;-76
2022/10/27 05:19:48;;;;;;;4.12;1.73;;;14.50;73.40;;;;;;2539315;54;20949;-77
2022/10/27 05:22:15;;;;;;;5.62;2.08;;;14.50;73.40;;;;;;2298448;55;20977;-78
2022/10/27 05:24:41;;;;;;;3.65;1.55;;;14.50;73.40;;;;;;2297580;55;20895;-76
2022/10/27 05:27:08;;;;;;;4.37;1.80;;;14.50;73.50;;;;;;2402581;54;21443;-77
2022/10/27 05:29:35;;;;;;;4.80;1.90;;;14.50;73.60;;;;;;2294697;55;20919;-75
2022/10/27 05:32:01;;;;;;;3.37;1.70;;;14.50;73.50;;;;;;2286788;55;21018;-78
2022/10/27 05:34:27;;;;;;;3.08;1.65;;;14.50;73.50;;;;;;2312069;55;21340;-76
2022/10/27 05:36:54;;;;;;;3.80;1.67;;;14.40;73.30;;;;;;2293673;55;20955;-78
2022/10/27 05:39:20;;;;;;;5.15;1.60;;;14.40;73.40;;;;;;2307842;54;21026;-79
2022/10/27 05:41:46;;;;;;;3.28;1.65;;;14.40;73.40;;;;;;2294437;55;20971;-77
2022/10/27 05:44:13;;;;;;;3.45;1.27;;;14.40;73.40;;;;;;2299500;55;21056;-77
2022/10/27 05:46:39;;;;;;;4.87;1.52;;;14.40;73.40;;;;;;2532012;54;21041;-76
2022/10/27 05:49:06;;;;;;;6.07;1.58;;;14.40;73.30;;;;;;2290989;55;21098;-79
2022/10/27 05:51:32;;;;;;;3.33;1.60;;;14.40;73.30;;;;;;2375220;54;21430;-76
2022/10/27 05:53:58;;;;;;;3.30;1.35;;;14.40;73.30;;;;;;2532798;54;21685;-77
2022/10/27 05:56:26;;;;;;;4.15;1.75;;;14.40;73.30;;;;;;2289842;55;21009;-76
2022/10/27 05:58:52;;;;;;;4.85;2.00;;;14.40;73.30;;;;;;2305651;55;21897;-75
2022/10/27 06:01:19;;;;;;;3.42;1.75;;;14.40;73.50;;;;;;2519615;54;21024;-77
2022/10/27 06:03:46;;;;;;;5.78;2.00;;;14.30;73.50;;;;;;2416493;54;20981;-75
2022/10/27 06:06:12;;;;;;;4.45;1.85;;;14.40;73.60;;;;;;2310259;55;21029;-77
2022/10/27 06:08:39;;;;;;;4.90;1.55;;;14.30;73.60;;;;;;2292779;55;21034;-77
2022/10/27 06:11:05;;;;;;;3.92;1.70;;;14.40;73.80;;;;;;2306590;55;21443;-78
2022/10/27 06:13:31;;;;;;;5.43;1.55;;;14.40;73.80;;;;;;2296170;54;21037;-76
2022/10/27 06:15:58;;;;;;;6.40;2.70;;;14.30;73.70;;;;;;2293822;55;20947;-76
2022/10/27 06:18:24;;;;;;;8.00;1.80;;;14.30;73.60;;;;;;2511573;54;21055;-77
2022/10/27 06:20:51;;;;;;;8.63;2.05;;;14.30;73.60;;;;;;2342924;54;21040;-74
2022/10/27 06:23:17;;;;;;;5.80;2.97;;;14.30;73.70;;;;;;2298730;55;21040;-78
2022/10/27 06:25:43;;;;;;;4.37;1.98;;;14.30;73.80;;;;;;2429141;54;20939;-77
2022/10/27 06:28:10;;;;;;;5.07;2.00;;;14.30;73.80;;;;;;2293949;55;21007;-75
2022/10/27 06:30:37;;;;;;;4.45;2.00;;;14.30;73.60;;;;;;2456715;54;20987;-77
2022/10/27 06:33:06;;;;;;;6.03;2.00;;;14.20;73.40;;;;;;2297183;55;20937;-79
2022/10/27 06:35:33;;;;;;;8.15;2.92;;;14.30;73.50;;;;;;2294191;55;21104;-75
2022/10/27 06:37:59;;;;;;;3.00;1.50;;;14.30;73.70;;;;;;2311046;54;21866;-76
2022/10/27 06:40:26;;;;;;;2.53;1.48;;;14.30;73.80;;;;;;2530814;54;20906;-76
2022/10/27 06:42:53;;;;;;;8.73;1.62;;;14.30;73.80;;;;;;2514676;54;22209;-75
2022/10/27 06:45:31;;;;;;;2.92;1.33;;;14.30;73.70;;;;;;2284165;55;20914;-75
2022/10/27 06:47:58;;;;;;;3.92;1.67;;;14.30;73.70;;;;;;2305066;55;20973;-77
2022/10/27 06:50:24;;;;;;;9.98;2.10;;;14.30;73.60;;;;;;2284840;55;21775;-78
2022/10/27 06:52:53;;;;;;;4.80;1.70;;;14.30;73.60;;;;;;2292979;55;21006;-77
2022/10/27 06:55:19;;;;;;;5.53;2.30;;;14.30;73.60;;;;;;2292164;55;21856;-78
2022/10/27 06:57:46;;;;;;;4.62;1.75;;;14.30;73.60;;;;;;2309035;55;20941;-76
2022/10/27 07:00:12;;;;;;;6.43;2.80;;;14.30;73.60;;;;;;2290745;55;25015;-75
2022/10/27 07:02:39;;;;;;;7.70;2.60;;;14.30;73.70;;;;;;2290015;55;20919;-75
2022/10/27 07:05:06;;;;;;;4.35;2.28;;;14.30;73.80;;;;;;2304715;55;20963;-76
2022/10/27 07:07:33;;;;;;;5.18;3.08;;;14.30;73.90;;;;;;2297360;55;21087;-77
2022/10/27 07:10:00;;;;;;;6.40;2.50;;;14.30;74.00;;;;;;2317012;55;20966;-78
2022/10/27 07:12:27;;;;;;;8.07;2.40;;;14.30;74.10;;;;;;2495440;53;20982;-78
2022/10/27 07:14:55;;;;;;;3.30;1.87;;;14.30;74.10;;;;;;2284855;55;21000;-75
2022/10/27 07:17:21;;;;;;;9.90;2.47;;;14.30;74.00;;;;;;2296759;54;21658;-78
2022/10/27 07:19:47;;;;;;;5.97;2.50;;;14.40;74.20;;;;;;2284404;55;20922;-75
2022/10/27 07:22:14;;;;;;;4.47;2.58;;;14.40;74.30;;;;;;2375455;54;21014;-78
2022/10/27 07:24:40;;;;;;;6.75;2.60;;;14.40;74.40;;;;;;2326538;55;20913;-77
2022/10/27 07:27:06;;;;;;;6.30;2.92;;;14.40;74.40;;;;;;2284626;55;20994;-76
2022/10/27 07:29:33;;;;;;;6.35;3.10;;;14.40;74.50;;;;;;2476692;54;21423;-77
2022/10/27 07:32:00;;;;;;;6.35;3.30;;;14.40;74.60;;;;;;2293507;55;21010;-78
2022/10/27 07:34:27;;;;;;;7.12;4.10;;;14.40;74.70;;;;;;2286829;55;21810;-78
2022/10/27 07:36:53;;;;;;;6.10;3.20;;;14.50;74.90;;;;;;2285788;55;21018;-79
2022/10/27 07:39:20;;;;;;;8.43;3.53;;;14.50;75.00;;;;;;2305438;55;20997;-79
2022/10/27 07:41:46;;;;;;;8.30;3.90;;;14.50;75.10;;;;;;2298220;55;21542;-77
2022/10/27 07:44:12;;;;;;;7.85;4.55;;;14.60;75.30;;;;;;2403686;54;21052;-77
2022/10/27 07:46:39;;;;;;;9.25;5.03;;;14.60;75.30;;;;;;2452582;53;21096;-78
2022/10/27 07:49:08;;;;;;;6.57;3.95;;;14.60;75.50;;;;;;2283029;55;21082;-78
2022/10/27 07:51:34;;;;;;;9.13;4.12;;;14.70;75.70;;;;;;2328220;54;21061;-77
2022/10/27 07:54:01;;;;;;;7.93;4.00;;;14.70;75.70;;;;;;2503465;54;21011;-76
2022/10/27 07:56:27;;;;;;;7.10;3.70;;;14.80;76.00;;;;;;2312805;54;21728;-77
2022/10/27 07:58:54;;;;;;;6.87;3.67;;;14.80;76.20;;;;;;2324545;54;20950;-79
2022/10/27 08:01:20;;;;;;;9.13;3.35;;;14.90;76.40;;;;;;2512755;54;21031;-78
2022/10/27 08:03:46;;;;;;;6.25;3.17;;;14.90;76.50;;;;;;2308094;55;20997;-75
2022/10/27 08:06:13;;;;;;;5.87;3.10;;;15.00;76.60;;;;;;2299385;55;21003;-78
2022/10/27 08:08:39;;;;;;;5.10;2.53;;;15.00;76.70;;;;;;2294129;55;21493;-77
2022/10/27 08:11:06;;;;;;;4.62;2.22;;;15.10;76.90;;;;;;2295661;54;20946;-76
2022/10/27 08:13:33;;;;;;;4.87;2.12;;;15.10;77.10;;;;;;2285997;55;20950;-76
2022/10/27 08:16:00;;;;;;;5.28;1.83;;;15.20;77.40;;;;;;2308684;54;21033;-77
2022/10/27 08:18:29;;;;;;;4.47;2.40;;;15.30;77.70;;;;;;2289060;54;21042;-77
2022/10/27 08:20:56;;;;;;;3.58;2.17;;;15.40;78.00;;;;;;2349728;54;21429;-77
2022/10/27 08:23:24;;;;;;;4.65;2.20;;;15.50;78.20;;;;;;2295446;54;20970;-78
2022/10/27 08:25:52;;;;;;;6.47;2.53;;;15.60;78.40;;;;;;2521940;54;20959;-76
2022/10/27 08:28:18;;;;;;;6.22;3.50;;;15.70;78.60;;;;;;2529959;54;21129;-77
2022/10/27 08:30:45;;;;;;;6.72;2.58;;;15.70;78.50;;;;;;2511062;54;20943;-78
2022/10/27 08:33:19;;;;;;;5.03;2.45;;;15.80;78.50;;;;;;2298153;55;21093;-77
2022/10/27 08:35:49;;;;;;;7.68;2.55;;;15.90;78.50;;;;;;2482911;53;22051;-78
2022/10/27 08:38:16;;;;;;;4.70;2.20;;;16.00;78.60;;;;;;2370345;55;21006;-77
2022/10/27 08:41:02;;;;;;;5.22;2.95;;;16.10;78.60;;;;;;2528302;53;20960;-77
2022/10/27 08:48:34;;;;;;;6.55;2.45;;;16.20;78.60;;;;;;2288915;54;20919;-76
2022/10/27 08:51:00;;;;;;;3.65;1.70;;;16.50;77.70;;;;;;2431103;54;21053;-77
2022/10/27 08:53:32;;;;;;;3.92;1.92;;;16.50;78.40;;;;;;2299802;55;20957;-78
2022/10/27 08:56:03;;;;;;;4.30;2.55;;;16.60;78.50;;;;;;2291680;55;21538;-77
2022/10/27 08:58:37;;;;;;;7.75;2.65;;;16.70;78.70;;;;;;2295329;55;21470;-76
2022/10/27 09:04:26;;;;;;;7.25;3.37;;;16.70;78.70;;;;;;2308525;54;20973;-76
2022/10/27 09:09:04;;;;;;;4.00;2.03;;;16.80;78.80;;;;;;2303071;55;21108;-80
2022/10/27 09:11:38;;;;;;;3.97;2.17;;;17.10;79.10;;;;;;2326845;54;21527;-81
2022/10/27 09:17:41;;;;;;;5.12;2.00;;;17.20;79.60;;;;;;2288888;55;20994;-78
2022/10/27 09:20:37;;;;;;;3.42;1.83;;;17.50;79.20;;;;;;2287634;55;20927;-77
2022/10/27 09:23:10;;;;;;;5.57;2.37;;;17.60;80.10;;;;;;2303050;55;20980;-79
2022/10/27 09:25:37;;;;;;;5.55;2.50;;;17.70;80.50;;;;;;2364961;54;21073;-79
2022/10/27 09:28:03;;;;;;;5.37;2.40;;;17.80;80.80;;;;;;2300786;55;20969;-77
2022/10/27 09:30:32;;;;;;;4.00;1.80;;;17.90;80.90;;;;;;2365412;54;20949;-77
2022/10/27 09:33:00;;;;;;;5.75;2.40;;;18.00;80.90;;;;;;2402646;54;21042;-79
2022/10/27 09:35:30;;;;;;;4.65;2.30;;;18.10;81.10;;;;;;2299907;55;21406;-77
2022/10/27 09:37:57;;;;;;;5.18;2.50;;;18.20;81.20;;;;;;2375634;54;22098;-77
2022/10/27 09:40:24;;;;;;;4.70;2.33;;;18.30;81.40;;;;;;2498821;53;20938;-77
2022/10/27 09:42:54;;;;;;;5.47;2.40;;;18.50;81.60;;;;;;2371779;54;21187;-79
2022/10/27 09:45:25;;;;;;;5.87;2.30;;;18.60;81.60;;;;;;2532173;54;21013;-77
2022/10/27 09:48:07;;;;;;;4.75;2.58;;;18.70;81.30;;;;;;2342446;54;20997;-77
2022/10/27 09:50:59;;;;;;;3.97;1.97;;;18.80;81.30;;;;;;2386961;54;20966;-77
2022/10/27 09:53:40;;;;;;;3.35;1.75;;;19.00;80.50;;;;;;2292434;55;21336;-77
2022/10/27 09:56:11;;;;;;;3.58;1.80;;;19.10;80.70;;;;;;2293601;55;21151;-79
2022/10/27 09:59:01;;;;;;;3.90;1.90;;;19.20;81.30;;;;;;2288375;55;21056;-78
2022/10/27 10:03:04;;;;;;;4.60;1.73;;;19.30;80.30;;;;;;2344191;54;20992;-76
2022/10/27 10:05:33;;;;;;;5.32;2.00;;;19.50;79.90;;;;;;2380063;54;20938;-76
2022/10/27 10:10:10;;;;;;;3.40;1.70;;;19.60;81.20;;;;;;2306358;54;21229;-76
2022/10/27 10:12:37;;;;;;;5.65;1.87;;;19.80;80.00;;;;;;2382394;54;20979;-76
2022/10/27 10:15:22;;;;;;;5.95;2.00;;;19.90;81.40;;;;;;2389050;54;21945;-80
2022/10/27 10:17:51;;;;;;;5.40;1.70;;;20.00;80.30;;;;;;2440253;54;21560;-79
2022/10/27 10:20:31;;;;;;;3.58;1.58;;;20.10;81.40;;;;;;2309691;54;21005;-80
2022/10/27 10:22:59;;;;;;;4.62;1.80;;;20.20;80.80;;;;;;2283630;55;21047;-77
2022/10/27 10:25:27;;;;;;;4.35;1.90;;;20.30;81.50;;;;;;2348886;54;21584;-78
2022/10/27 10:27:58;;;;;;;4.10;1.80;;;20.30;81.30;;;;;;2511708;55;20955;-78
2022/10/27 10:30:26;;;;;;;3.90;1.90;;;20.50;81.80;;;;;;2261998;55;20970;-77
2022/10/27 10:32:54;;;;;;;5.20;1.50;;;20.60;81.30;;;;;;2275007;55;20955;-78
2022/10/27 10:42:13;;;;;;;3.03;1.55;;;20.70;81.30;;;;;;2282083;56;21034;-77
2022/10/27 10:44:41;;;;;;;2.95;0.98;;;21.10;79.80;;;;;;2281912;55;20950;-77
2022/10/27 10:47:23;;;;;;;5.00;1.17;;;21.20;81.50;;;;;;2281736;55;20967;-78
2022/10/27 10:49:56;;;;;;;3.62;1.48;;;21.30;80.30;;;;;;2280782;54;21081;-77
2022/10/27 10:52:24;;;;;;;3.20;1.45;;;21.40;80.80;;;;;;2273025;55;21461;-77
2022/10/27 10:54:53;;;;;;;6.15;1.95;;;21.40;80.90;;;;;;2265642;54;20988;-76
2022/10/27 10:57:41;;;;;;;3.87;1.67;;;21.60;81.00;;;;;;2486777;54;20998;-81
2022/10/27 11:00:16;;;;;;;4.95;1.52;;;21.60;79.20;;;;;;2307276;54;20950;-80
2022/10/27 11:02:49;;;;;;;3.85;1.60;;;21.70;80.00;;;;;;2503633;54;20934;-77
2022/10/27 11:05:20;;;;;;;6.40;1.83;;;21.80;80.50;;;;;;2416041;54;21030;-80
2022/10/27 11:07:47;;;;;;;4.37;1.63;;;21.90;80.00;;;;;;2324826;54;20982;-80
2022/10/27 11:10:17;;;;;;;5.30;1.87;;;22.00;80.40;;;;;;2516108;54;20915;-77
2022/10/27 11:12:47;;;;;;;4.50;1.60;;;22.00;80.10;;;;;;2370912;54;20963;-77
2022/10/27 11:16:13;;;;;;;4.20;1.75;;;22.10;80.50;;;;;;2292021;55;21024;-78
2022/10/27 11:18:59;;;;;;;5.57;2.00;;;22.20;77.90;;;;;;2478121;54;21455;-79
2022/10/27 11:28:25;;;;;;;4.68;1.90;;;22.30;78.50;;;;;;2294372;55;21482;-80
2022/10/27 11:31:08;;;;;;;2.85;1.00;;;22.60;78.30;;;;;;2439489;54;21138;-77
2022/10/27 11:36:17;;;;;;;3.40;1.20;;;22.60;78.30;;;;;;2280735;55;20951;-79
2022/10/27 11:39:02;;;;;;;5.22;1.10;;;22.70;77.70;;;;;;2370267;54;21045;-77
2022/10/27 11:41:37;;;;;;;4.00;1.58;;;22.80;78.30;;;;;;2344164;54;21034;-80
2022/10/27 11:44:21;;;;;;;4.32;1.40;;;22.80;78.60;;;;;;2291617;54;21004;-77
2022/10/27 11:46:59;;;;;;;3.60;1.90;;;22.90;78.40;;;;;;2285938;55;20911;-79
2022/10/27 11:50:50;;;;;;;5.47;1.85;;;22.90;78.30;;;;;;2293973;54;20954;-77
2022/10/27 11:53:16;;;;;;;2.80;1.45;;;23.00;76.80;;;;;;2303165;54;21565;-76
2022/10/27 11:57:25;;;;;;;6.50;2.08;;;23.00;78.90;;;;;;2284881;55;21014;-79
2022/10/27 12:00:26;;;;;;;4.60;1.70;;;23.10;76.80;;;;;;2292119;55;20947;-77
2022/10/27 12:04:44;;;;;;;4.85;1.50;;;23.20;78.10;;;;;;2378936;54;21006;-77
2022/10/27 12:07:27;;;;;;;3.15;1.35;;;23.20;77.00;;;;;;2286760;55;20939;-77
2022/10/27 12:11:55;;;;;;;4.20;1.75;;;23.30;77.80;;;;;;2416959;55;21236;-78
2022/10/27 12:15:30;;;;;;;3.12;1.52;;;23.40;76.70;;;;;;2508619;55;20920;-79
2022/10/27 12:18:00;;;;;;;3.55;1.60;;;23.40;77.90;;;;;;2428714;54;20970;-77
2022/10/27 12:20:49;;;;;;;3.97;1.33;;;23.50;78.30;;;;;;2278399;56;21032;-79
2022/10/27 12:23:21;;;;;;;4.05;1.95;;;23.50;77.40;;;;;;2441516;54;21011;-77
2022/10/27 12:26:06;;;;;;;3.70;1.90;;;23.60;78.30;;;;;;2280271;55;21515;-77
2022/10/27 12:28:32;;;;;;;4.00;1.75;;;23.60;77.70;;;;;;2320175;55;20992;-76
2022/10/27 12:30:59;;;;;;;6.72;1.83;;;23.70;78.60;;;;;;2329411;55;20992;-76
2022/10/27 12:34:12;;;;;;;4.53;1.83;;;23.70;78.40;;;;;;2380529;54;21304;-76
2022/10/27 12:36:58;;;;;;;4.68;1.75;;;23.80;76.30;;;;;;2373676;54;21019;-79
2022/10/27 12:39:50;;;;;;;4.20;1.73;;;23.90;78.10;;;;;;2425069;54;21078;-77
2022/10/27 12:42:22;;;;;;;;;;;23.90;77.30;;;;;;2285190;56;20968;-77
2022/10/27 12:47:02;;;;;;;4.18;2.05;;;24.00;76.50;;;;;;2306660;55;20069;-77
2022/10/27 12:50:46;;;;;;;3.20;1.45;;;24.10;77.30;;;;;;2387330;55;20951;-77
2022/10/27 12:55:15;;;;;;;5.00;1.70;;;24.20;76.40;;;;;;2366811;55;20940;-80
2022/10/27 12:58:12;;;;;;;2.90;1.40;;;24.20;77.00;;;;;;2355667;54;22478;-76
2022/10/27 13:00:48;;;;;;;3.33;1.65;;;24.30;76.60;;;;;;2279270;55;21590;-77
2022/10/27 13:03:46;;;;;;;3.65;1.73;;;24.40;77.30;;;;;;2278241;55;20998;-76
2022/10/27 13:07:54;;;;;;;5.45;1.92;;;24.40;76.70;;;;;;2511669;54;21531;-79
2022/10/27 13:10:57;;;;;;;4.85;1.70;;;24.40;76.40;;;;;;2278743;55;21917;-79
2022/10/27 13:16:53;;;;;;;5.07;2.00;;;24.50;76.70;;;;;;2279084;55;21787;-77
2022/10/27 13:21:07;;;;;;;3.45;1.48;;;24.60;76.70;;;;;;2308058;55;21632;-80
2022/10/27 13:24:16;;;;;;;3.05;1.40;;;24.70;76.40;;;;;;2281534;55;21038;-77
2022/10/27 13:26:53;;;;;;;4.07;1.40;;;24.80;76.50;;;;;;2280236;54;21015;-77
2022/10/27 13:29:48;;;;;;;4.22;1.90;;;24.80;77.50;;;;;;2276664;54;21482;-77
2022/10/27 13:32:25;;;;;;;4.87;1.90;;;24.80;76.10;;;;;;2370339;54;20966;-76
2022/10/27 13:36:13;;;;;;;4.28;1.70;;;24.90;76.80;;;;;;2353177;54;21643;-76
2022/10/27 13:38:39;;;;;;;5.65;1.75;;;25.00;76.40;;;;;;2287227;54;21713;-77
2022/10/27 13:41:05;;;;;;;3.08;1.62;;;25.00;78.40;;;;;;2303290;54;20911;-76
2022/10/27 13:43:42;;;;;;;3.70;1.80;;;25.00;78.30;;;;;;2299176;55;21850;-77
2022/10/27 13:46:09;;;;;;;5.37;1.98;;;25.10;76.80;;;;;;2283665;55;21794;-78
2022/10/27 13:48:44;;;;;;;3.78;1.62;;;25.10;78.00;;;;;;2283756;55;20926;-77
2022/10/27 13:51:38;;;;;;;5.78;1.60;;;25.20;77.30;;;;;;2284111;54;21034;-78
2022/10/27 13:54:43;;;;;;;3.10;1.70;;;25.30;76.10;;;;;;2350177;54;21141;-76
2022/10/27 13:57:41;;;;;;;4.03;1.67;;;25.30;75.20;;;;;;2286551;55;21070;-78
2022/10/27 14:00:16;;;;;;;6.82;1.80;;;25.40;76.20;;;;;;2284817;55;20970;-81
2022/10/27 14:03:04;;;;;;;3.70;1.70;;;25.40;76.60;;;;;;2285754;55;20966;-77
2022/10/27 14:05:32;;;;;;;3.92;1.48;;;25.50;76.60;;;;;;2379681;54;21021;-77
2022/10/27 14:07:58;;;;;;;4.62;1.65;;;25.50;76.70;;;;;;2284288;55;21289;-77
2022/10/27 14:10:25;;;;;;;6.05;2.10;;;25.50;76.60;;;;;;2420285;54;21066;-78
2022/10/27 14:12:51;;;;;;;5.07;1.98;;;25.50;76.40;;;;;;2378847;54;20946;-77
2022/10/27 14:15:25;;;;;;;4.68;1.55;;;25.60;76.40;;;;;;2284109;55;20923;-79
2022/10/27 14:17:52;;;;;;;4.97;1.85;;;25.60;75.20;;;;;;2279426;54;21003;-78